Sevier River near Sigurd




Date Battery Voltage (V) Panel Temperature (degC) River Stage (ft) River Discharge (cfs)
03/01/2019 13.25 10.13 2.54 228
03/02/2019 12.82 4.69 2.33 186
03/03/2019 13.02 3.37 2.55 235
03/04/2019 13.13 5.11 2.75 278
03/05/2019 13.17 6.06 2.57 234
03/06/2019 12.72 6.84 2.57 236
03/07/2019 13.08 10.40 2.60 242
03/08/2019 13.20 5.07 2.64 251
03/09/2019 13.25 5.55 2.68 261
03/11/2019 13.33 7.92 2.71 268
03/12/2019 13.26 10.39 2.57 236
03/13/2019 13.18 3.03 2.56 234
03/14/2019 13.14 2.85 2.58 237
03/15/2019 13.43 4.43 2.60 242
03/16/2019 13.42 6.97 2.63 249
03/17/2019 13.39 8.65 2.65 253
03/18/2019 13.37 8.61 2.66 256
03/19/2019 13.39 9.09 2.69 263
03/20/2019 13.39 11.05 2.78 285
03/21/2019 13.21 8.69 2.88 309
03/25/2019 13.32 9.29 2.19 168
03/27/2019 13.36 12.27 2.01 130
03/28/2019 13.35 14.75 2.00 128
03/30/2019 13.37 7.29 2.01 131
03/31/2019 13.43 9.22 1.94 120
Average 226
Maximum 309
Minimum 120
Total Volume (AF) 11,224